| time (UTC) | temp F | wind direction | speed MPH | gust MPH | rain 1hr in | rain 24hr in | rain mn in | humidity % | barometer mb |
| 20260831101523 | 71 | 122 | 0.0 | 3.0 | 0.14 | 0.18 | 0.14 | 90 | 1014.5 |
| 20260831101005 | 71 | 99 | 1.0 | 3.0 | 0.14 | 0.18 | 0.14 | 90 | 1014.5 |
| 20260831100509 | 71 | 332 | 0.0 | 3.0 | 0.12 | 0.18 | 0.12 | 89 | 1014.8 |
| 20260831100028 | 71 | 99 | 0.0 | 2.0 | 0.12 | 0.18 | 0.12 | 89 | 1014.6 |
| 20260831095503 | 71 | 40 | 0.0 | 2.0 | 0.12 | 0.18 | 0.12 | 89 | 1014.7 |
| 20260831095007 | 71 | 69 | 1.0 | 3.0 | 0.12 | 0.18 | 0.12 | 88 | 1014.4 |
| 20260831094520 | 71 | 321 | 0.0 | 3.0 | 0.12 | 0.18 | 0.12 | 87 | 1014.5 |
| 20260831094003 | 72 | 293 | 1.0 | 2.0 | 0.08 | 0.14 | 0.08 | 86 | 1014.4 |
| 20260831093509 | 72 | 259 | 0.0 | 2.0 | 0.01 | 0.07 | 0.01 | 85 | 1014.3 |
| 20260831093022 | 72 | 91 | 0.0 | 2.0 | 0.00 | 0.06 | 0.00 | 84 | 1013.9 |
| 20260831092504 | 72 | 55 | 0.0 | 2.0 | 0.00 | 0.06 | 0.00 | 84 | 1014.1 |
| 20260831092011 | 72 | 40 | 0.0 | 2.0 | 0.00 | 0.06 | 0.00 | 84 | 1013.9 |
| 20260831091527 | 72 | 50 | 0.0 | 2.0 | 0.00 | 0.06 | 0.00 | 84 | 1013.9 |
| 20260831091005 | 72 | 51 | 0.0 | 2.0 | 0.00 | 0.07 | 0.00 | 84 | 1013.9 |
| 20260831090513 | 72 | 57 | 0.0 | 2.0 | 0.00 | 0.07 | 0.00 | 84 | 1013.9 |
| 20260831090024 | 72 | 74 | 0.0 | 2.0 | 0.00 | 0.07 | 0.00 | 85 | 1014.0 |
| 20260831085504 | 72 | 61 | 0.0 | 2.0 | 0.00 | 0.07 | 0.00 | 85 | 1013.9 |
| 20260831085011 | 72 | 57 | 0.0 | 2.0 | 0.00 | 0.07 | 0.00 | 85 | 1014.0 |
| 20260831084528 | 71 | 69 | 0.0 | 0.0 | 0.00 | 0.07 | 0.00 | 85 | 1014.0 |
| 20260831084005 | 71 | 73 | 0.0 | 1.0 | 0.00 | 0.07 | 0.00 | 85 | 1014.0 |
| 20260831083511 | 71 | 78 | 0.0 | 2.0 | 0.00 | 0.07 | 0.00 | 85 | 1014.0 |
| 20260831083026 | 71 | 92 | 0.0 | 2.0 | 0.00 | 0.07 | 0.00 | 85 | 1014.0 |
| 20260831082510 | 71 | 65 | 0.0 | 2.0 | 0.00 | 0.07 | 0.00 | 86 | 1014.1 |
| 20260831082011 | 71 | 75 | 0.0 | 3.0 | 0.00 | 0.07 | 0.00 | 86 | 1014.0 |
| 20260831081539 | 71 | 156 | 0.0 | 3.0 | 0.00 | 0.07 | 0.00 | 86 | 1014.1 |
| 20260831081006 | 71 | 92 | 2.0 | 3.0 | 0.00 | 0.07 | 0.00 | 87 | 1013.9 |
| 20260831080514 | 71 | 51 | 0.0 | 2.0 | 0.00 | 0.08 | 0.00 | 87 | 1013.9 |
| 20260831080028 | 71 | 55 | 0.0 | 2.0 | 0.00 | 0.08 | 0.00 | 87 | 1013.8 |
| 20260831075508 | 70 | 96 | 0.0 | 2.0 | 0.00 | 0.08 | 0.00 | 88 | 1014.0 |
| 20260831075013 | 70 | 39 | 0.0 | 2.0 | 0.00 | 0.08 | 0.00 | 88 | 1014.1 |
| 20260831074515 | 71 | 59 | 0.0 | 2.0 | 0.00 | 0.08 | 0.00 | 87 | 1014.2 |
| 20260831074014 | 71 | 81 | 0.0 | 4.0 | 0.00 | 0.08 | 0.00 | 87 | 1014.3 |
| 20260831073512 | 71 | 78 | 2.0 | 4.0 | 0.00 | 0.08 | 0.00 | 87 | 1014.3 |
| 20260831073014 | 71 | 82 | 1.0 | 4.0 | 0.00 | 0.08 | 0.00 | 87 | 1014.4 |
| 20260831072509 | 71 | 92 | 1.0 | 4.0 | 0.00 | 0.08 | 0.00 | 87 | 1014.5 |
| 20260831072002 | 71 | 71 | 0.0 | 2.0 | 0.00 | 0.08 | 0.00 | 87 | 1014.7 |
| 20260831071515 | 71 | 65 | 0.0 | 3.0 | 0.00 | 0.08 | 0.00 | 87 | 1014.7 |
| 20260831071012 | 71 | 70 | 1.0 | 3.0 | 0.00 | 0.08 | 0.00 | 87 | 1014.8 |
| 20260831070504 | 71 | 55 | 2.0 | 4.0 | 0.00 | 0.08 | 0.00 | 88 | 1014.9 |
| 20260831070023 | 71 | 55 | 3.0 | 4.0 | 0.00 | 0.08 | 0.00 | 88 | 1015.0 |
| 20260831065512 | 71 | 64 | 1.0 | 2.0 | 0.00 | 0.08 | 0.00 | 87 | 1015.1 |
| 20260831065004 | 71 | 61 | 0.0 | 2.0 | 0.00 | 0.08 | 0.00 | 87 | 1015.2 |
| 20260831064515 | 71 | 63 | 0.0 | 2.0 | 0.00 | 0.08 | 0.00 | 87 | 1015.2 |
| 20260831064013 | 71 | 71 | 0.0 | 2.0 | 0.00 | 0.11 | 0.00 | 87 | 1015.2 |
| 20260831063507 | 71 | 53 | 0.0 | 2.0 | 0.00 | 0.11 | 0.00 | 87 | 1015.2 |
| 20260831063016 | 71 | 55 | 0.0 | 2.0 | 0.00 | 0.11 | 0.00 | 87 | 1015.3 |
| 20260831062517 | 71 | 57 | 0.0 | 2.0 | 0.00 | 0.11 | 0.00 | 87 | 1015.3 |
| 20260831062004 | 71 | 53 | 0.0 | 2.0 | 0.00 | 0.11 | 0.00 | 87 | 1015.4 |
| 20260831061518 | 71 | 48 | 1.0 | 2.0 | 0.00 | 0.11 | 0.00 | 87 | 1015.4 |
| 20260831061014 | 71 | 22 | 0.0 | 2.0 | 0.00 | 0.11 | 0.00 | 87 | 1015.5 |
| 20260831060506 | 71 | 19 | 0.0 | 2.0 | 0.00 | 0.11 | 0.00 | 87 | 1015.5 |
| 20260831060023 | 71 | 36 | 0.0 | 2.0 | 0.00 | 0.11 | 0.00 | 87 | 1015.4 |
| 20260831055513 | 71 | 39 | 0.0 | 2.0 | 0.00 | 0.11 | 0.00 | 87 | 1015.5 |
| 20260831055004 | 71 | 20 | 0.0 | 2.0 | 0.00 | 0.11 | 0.00 | 87 | 1015.6 |
| 20260831054525 | 72 | 19 | 0.0 | 2.0 | 0.00 | 0.11 | 0.00 | 87 | 1015.5 |
| 20260831054019 | 72 | 16 | 0.0 | 2.0 | 0.00 | 0.11 | 0.00 | 86 | 1015.4 |
| 20260831053504 | 72 | 63 | 0.0 | 2.0 | 0.00 | 0.11 | 0.00 | 86 | 1015.3 |
| 20260831053025 | 72 | 36 | 0.0 | 2.0 | 0.00 | 0.11 | 0.00 | 86 | 1015.3 |
| 20260831052514 | 72 | 71 | 0.0 | 2.0 | 0.00 | 0.11 | 0.00 | 86 | 1015.3 |
| 20260831052008 | 72 | 37 | 0.0 | 2.0 | 0.00 | 0.11 | 0.00 | 86 | 1015.2 |
| 20260831051544 | 72 | 92 | 0.0 | 2.0 | 0.00 | 0.11 | 0.00 | 85 | 1015.0 |
| 20260831051016 | 73 | 92 | 0.0 | 2.0 | 0.00 | 0.11 | 0.00 | 85 | 1015.2 |
| 20260831050508 | 73 | 79 | 0.0 | 2.0 | 0.00 | 0.11 | 0.00 | 84 | 1015.2 |
| 20260831050027 | 73 | 108 | 0.0 | 2.0 | 0.00 | 0.11 | 0.00 | 84 | 1015.3 |
| 20260831045519 | 73 | 37 | 0.0 | 2.0 | 0.00 | 0.11 | 0.11 | 84 | 1015.3 |
| 20260831045008 | 73 | 68 | 1.0 | 2.0 | 0.00 | 0.11 | 0.11 | 84 | 1015.2 |
| 20260831044528 | 73 | 75 | 1.0 | 2.0 | 0.00 | 0.11 | 0.11 | 84 | 1015.2 |
| 20260831044013 | 73 | 36 | 0.0 | 3.0 | 0.00 | 0.11 | 0.11 | 83 | 1015.2 |
| 20260831043508 | 73 | 5 | 1.0 | 7.0 | 0.00 | 0.11 | 0.11 | 84 | 1015.3 |
| 20260831043026 | 72 | 297 | 1.0 | 7.0 | 0.00 | 0.11 | 0.11 | 84 | 1015.2 |
| 20260831042517 | 72 | 251 | 3.0 | 7.0 | 0.00 | 0.11 | 0.11 | 84 | 1015.2 |
| 20260831042011 | 73 | 240 | 4.0 | 7.0 | 0.00 | 0.11 | 0.11 | 84 | 1015.3 |
| 20260831041535 | 73 | 247 | 3.0 | 7.0 | 0.00 | 0.11 | 0.11 | 84 | 1015.2 |
| 20260831041005 | 73 | 241 | 4.0 | 6.0 | 0.00 | 0.11 | 0.11 | 84 | 1015.2 |
| 20260831040512 | 73 | 240 | 1.0 | 4.0 | 0.00 | 0.11 | 0.11 | 83 | 1014.9 |
| 20260831040042 | 73 | 208 | 1.0 | 4.0 | 0.00 | 0.11 | 0.11 | 83 | 1014.7 |
| 20260831035506 | 73 | 240 | 1.0 | 6.0 | 0.00 | 0.11 | 0.11 | 83 | 1014.9 |
| 20260831035012 | 73 | 257 | 2.0 | 6.0 | 0.00 | 0.11 | 0.11 | 83 | 1014.9 |
| 20260831034533 | 73 | 284 | 2.0 | 6.0 | 0.00 | 0.11 | 0.11 | 83 | 1015.0 |
| 20260831034007 | 73 | 284 | 2.0 | 4.0 | 0.00 | 0.11 | 0.11 | 83 | 1014.7 |
| 20260831033513 | 73 | 232 | 1.0 | 7.0 | 0.00 | 0.11 | 0.11 | 83 | 1014.4 |
| 20260831033034 | 73 | 257 | 1.0 | 7.0 | 0.00 | 0.11 | 0.11 | 83 | 1014.5 |
| 20260831032507 | 72 | 260 | 3.0 | 7.0 | 0.00 | 0.11 | 0.11 | 83 | 1014.8 |
| 20260831032010 | 72 | 233 | 2.0 | 7.0 | 0.00 | 0.11 | 0.11 | 83 | 1014.3 |
| 20260831031533 | 73 | 156 | 2.0 | 7.0 | 0.00 | 0.11 | 0.11 | 83 | 1014.5 |
| 20260831031009 | 73 | 258 | 2.0 | 9.0 | 0.00 | 0.11 | 0.11 | 83 | 1014.1 |
| 20260831030513 | 73 | 229 | 3.0 | 9.0 | 0.00 | 0.11 | 0.11 | 83 | 1014.3 |
| 20260831030035 | 72 | 219 | 2.0 | 8.0 | 0.00 | 0.11 | 0.11 | 84 | 1014.3 |
| 20260831025511 | 72 | 129 | 3.0 | 7.0 | 0.00 | 0.11 | 0.11 | 84 | 1014.6 |
| 20260831025015 | 72 | 221 | 1.0 | 5.0 | 0.00 | 0.11 | 0.11 | 84 | 1014.9 |
| 20260831024531 | 72 | 226 | 2.0 | 5.0 | 0.00 | 0.11 | 0.11 | 84 | 1015.0 |
| 20260831024010 | 72 | 111 | 2.0 | 7.0 | 0.00 | 0.11 | 0.11 | 84 | 1015.1 |
| 20260831023516 | 72 | 235 | 3.0 | 7.0 | 0.00 | 0.11 | 0.11 | 84 | 1015.2 |
| 20260831023040 | 72 | 250 | 1.0 | 6.0 | 0.00 | 0.11 | 0.11 | 84 | 1015.2 |
| 20260831022513 | 72 | 243 | 1.0 | 5.0 | 0.00 | 0.11 | 0.11 | 84 | 1015.2 |
| 20260831022016 | 72 | 208 | 1.0 | 7.0 | 0.00 | 0.11 | 0.11 | 84 | 1015.2 |
| 20260831021548 | 72 | 207 | 3.0 | 7.0 | 0.00 | 0.11 | 0.11 | 84 | 1015.1 |
| 20260831021010 | 72 | 175 | 3.0 | 8.0 | 0.00 | 0.11 | 0.11 | 84 | 1015.0 |
| 20260831020514 | 72 | 212 | 2.0 | 9.0 | 0.00 | 0.11 | 0.11 | 84 | 1014.9 |
| 20260831020034 | 72 | 202 | 3.0 | 9.0 | 0.00 | 0.11 | 0.11 | 84 | 1014.9 |
| 20260831015512 | 72 | 210 | 3.0 | 9.0 | 0.00 | 0.11 | 0.11 | 84 | 1014.8 |
| 20260831015019 | 72 | 253 | 3.0 | 8.0 | 0.00 | 0.11 | 0.11 | 84 | 1015.0 |
| 20260831014532 | 72 | 242 | 3.0 | 8.0 | 0.00 | 0.11 | 0.11 | 84 | 1014.9 |
| 20260831014012 | 72 | 277 | 2.0 | 8.0 | 0.00 | 0.11 | 0.11 | 85 | 1015.0 |
| 20260831013517 | 72 | 198 | 3.0 | 8.0 | 0.00 | 0.11 | 0.11 | 85 | 1015.0 |
| 20260831013034 | 72 | 210 | 3.0 | 8.0 | 0.00 | 0.11 | 0.11 | 85 | 1014.9 |
| 20260831012514 | 72 | 205 | 2.0 | 11.0 | 0.00 | 0.11 | 0.11 | 86 | 1015.0 |
| 20260831012016 | 72 | 193 | 5.0 | 11.0 | 0.00 | 0.11 | 0.11 | 86 | 1015.0 |
| 20260831011518 | 72 | 148 | 4.0 | 10.0 | 0.00 | 0.11 | 0.11 | 86 | 1015.2 |
| 20260831011011 | 72 | 133 | 3.0 | 10.0 | 0.00 | 0.11 | 0.11 | 86 | 1015.2 |
| 20260831010517 | 72 | 229 | 2.0 | 8.0 | 0.00 | 0.11 | 0.11 | 86 | 1015.1 |
| 20260831010041 | 72 | 236 | 2.0 | 6.0 | 0.00 | 0.11 | 0.11 | 86 | 1015.0 |
| 20260831005516 | 72 | 255 | 1.0 | 7.0 | 0.00 | 0.11 | 0.11 | 86 | 1014.7 |
| 20260831005014 | 72 | 220 | 3.0 | 8.0 | 0.00 | 0.11 | 0.11 | 86 | 1014.7 |
| 20260831004523 | 72 | 229 | 4.0 | 8.0 | 0.00 | 0.11 | 0.11 | 86 | 1014.5 |
| 20260831004014 | 72 | 234 | 2.0 | 7.0 | 0.00 | 0.11 | 0.11 | 85 | 1014.5 |
| 20260831003519 | 72 | 249 | 3.0 | 7.0 | 0.00 | 0.11 | 0.11 | 85 | 1014.6 |
| 20260831003024 | 73 | 126 | 1.0 | 10.0 | 0.00 | 0.11 | 0.11 | 85 | 1014.4 |
| 20260831002514 | 73 | 254 | 1.0 | 10.0 | 0.00 | 0.11 | 0.11 | 85 | 1014.4 |
| 20260831002018 | 73 | 232 | 3.0 | 6.0 | 0.00 | 0.11 | 0.11 | 85 | 1014.4 |
| 20260831001539 | 73 | 228 | 1.0 | 4.0 | 0.00 | 0.11 | 0.11 | 85 | 1014.4 |
| 20260831001018 | 73 | 210 | 1.0 | 5.0 | 0.00 | 0.11 | 0.11 | 84 | 1014.4 |
| 20260831000507 | 73 | 159 | 2.0 | 5.0 | 0.00 | 0.11 | 0.11 | 84 | 1014.3 |
| 20260831000027 | 73 | 130 | 1.0 | 6.0 | 0.00 | 0.11 | 0.11 | 84 | 1014.2 |
| 20260830235503 | 74 | 184 | 2.0 | 6.0 | 0.00 | 0.11 | 0.11 | 84 | 1014.1 |
| 20260830235006 | 74 | 197 | 2.0 | 7.0 | 0.00 | 0.11 | 0.11 | 83 | 1014.1 |
| 20260830234529 | 74 | 233 | 4.0 | 7.0 | 0.00 | 0.11 | 0.11 | 83 | 1014.1 |
| 20260830234003 | 74 | 131 | 3.0 | 7.0 | 0.00 | 0.11 | 0.11 | 82 | 1014.0 |
| 20260830233510 | 74 | 232 | 1.0 | 7.0 | 0.00 | 0.11 | 0.11 | 82 | 1014.0 |
| 20260830233024 | 74 | 142 | 2.0 | 8.0 | 0.00 | 0.11 | 0.11 | 81 | 1014.0 |
| 20260830232503 | 74 | 226 | 3.0 | 9.0 | 0.00 | 0.11 | 0.11 | 81 | 1014.1 |
| 20260830232008 | 75 | 185 | 3.0 | 9.0 | 0.00 | 0.11 | 0.11 | 80 | 1014.2 |
| 20260830231531 | 75 | 209 | 3.0 | 8.0 | 0.00 | 0.11 | 0.11 | 80 | 1014.2 |
| 20260830231005 | 75 | 170 | 1.0 | 9.0 | 0.00 | 0.11 | 0.11 | 80 | 1014.3 |
| 20260830230515 | 75 | 254 | 4.0 | 9.0 | 0.00 | 0.11 | 0.11 | 80 | 1014.2 |
| 20260830230040 | 75 | 292 | 2.0 | 6.0 | 0.00 | 0.11 | 0.11 | 80 | 1014.2 |
| 20260830225505 | 75 | 211 | 2.0 | 6.0 | 0.00 | 0.11 | 0.11 | 81 | 1014.2 |
| 20260830225011 | 75 | 250 | 2.0 | 6.0 | 0.00 | 0.11 | 0.11 | 81 | 1014.1 |
| 20260830224505 | 74 | 207 | 2.0 | 5.0 | 0.00 | 0.11 | 0.11 | 81 | 1014.1 |
| 20260830224006 | 74 | 252 | 2.0 | 5.0 | 0.00 | 0.11 | 0.11 | 81 | 1014.1 |
| 20260830223513 | 74 | 212 | 1.0 | 6.0 | 0.00 | 0.11 | 0.11 | 81 | 1014.2 |
| 20260830223010 | 74 | 192 | 2.0 | 6.0 | 0.00 | 0.11 | 0.11 | 81 | 1014.1 |
| 20260830222509 | 74 | 217 | 2.0 | 5.0 | 0.00 | 0.11 | 0.11 | 81 | 1014.1 |
| 20260830222013 | 74 | 228 | 2.0 | 7.0 | 0.00 | 0.11 | 0.11 | 81 | 1014.1 |
| 20260830221507 | 74 | 248 | 1.0 | 7.0 | 0.00 | 0.11 | 0.11 | 81 | 1014.1 |
| 20260830221007 | 74 | 214 | 3.0 | 9.0 | 0.00 | 0.11 | 0.11 | 81 | 1014.2 |
| 20260830220513 | 74 | 149 | 3.0 | 9.0 | 0.00 | 0.11 | 0.11 | 82 | 1014.2 |
| 20260830220008 | 74 | 219 | 3.0 | 8.0 | 0.00 | 0.11 | 0.11 | 81 | 1014.1 |
| 20260830215506 | 74 | 245 | 1.0 | 11.0 | 0.00 | 0.11 | 0.11 | 81 | 1014.2 |
| 20260830215014 | 74 | 211 | 5.0 | 11.0 | 0.00 | 0.11 | 0.11 | 81 | 1014.2 |
| 20260830214508 | 74 | 257 | 3.0 | 11.0 | 0.00 | 0.11 | 0.11 | 81 | 1014.2 |
| 20260830214009 | 74 | 234 | 5.0 | 10.0 | 0.00 | 0.11 | 0.11 | 80 | 1014.0 |
| 20260830213522 | 74 | 163 | 3.0 | 10.0 | 0.00 | 0.13 | 0.11 | 81 | 1014.1 |
| 20260830213035 | 74 | 254 | 4.0 | 13.0 | 0.00 | 0.15 | 0.11 | 81 | 1014.1 |
| 20260830212508 | 74 | 195 | 3.0 | 13.0 | 0.00 | 0.15 | 0.11 | 80 | 1014.0 |
| 20260830212016 | 74 | 246 | 5.0 | 13.0 | 0.00 | 0.15 | 0.11 | 79 | 1013.9 |
| 20260830211518 | 74 | 178 | 5.0 | 9.0 | 0.00 | 0.15 | 0.11 | 79 | 1014.0 |
| 20260830211012 | 75 | 259 | 3.0 | 9.0 | 0.00 | 0.16 | 0.11 | 79 | 1014.0 |
| 20260830210514 | 75 | 221 | 3.0 | 9.0 | 0.00 | 0.16 | 0.11 | 79 | 1014.0 |
| 20260830210015 | 75 | 198 | 5.0 | 10.0 | 0.00 | 0.16 | 0.11 | 78 | 1014.1 |
| 20260830205515 | 75 | 227 | 4.0 | 17.0 | 0.00 | 0.16 | 0.11 | 77 | 1014.2 |
| 20260830205018 | 75 | 171 | 5.0 | 17.0 | 0.00 | 0.16 | 0.11 | 77 | 1014.2 |
| 20260830204514 | 75 | 148 | 5.0 | 15.0 | 0.00 | 0.16 | 0.11 | 76 | 1014.2 |
| 20260830204012 | 76 | 263 | 5.0 | 17.0 | 0.00 | 0.16 | 0.11 | 75 | 1014.2 |
| 20260830203516 | 76 | 232 | 4.0 | 17.0 | 0.00 | 0.16 | 0.11 | 75 | 1014.2 |
| 20260830203017 | 76 | 117 | 4.0 | 16.0 | 0.00 | 0.16 | 0.11 | 76 | 1014.2 |
| 20260830202517 | 76 | 282 | 3.0 | 12.0 | 0.00 | 0.16 | 0.11 | 75 | 1014.2 |
| 20260830202016 | 76 | 245 | 4.0 | 15.0 | 0.00 | 0.16 | 0.11 | 76 | 1014.2 |
| 20260830201516 | 76 | 232 | 7.0 | 15.0 | 0.00 | 0.16 | 0.11 | 75 | 1014.2 |
| 20260830201013 | 77 | 217 | 5.0 | 11.0 | 0.00 | 0.16 | 0.11 | 74 | 1014.2 |
| 20260830200517 | 77 | 217 | 6.0 | 12.0 | 0.00 | 0.16 | 0.11 | 74 | 1014.2 |
| 20260830200018 | 77 | 217 | 5.0 | 19.0 | 0.00 | 0.16 | 0.11 | 73 | 1014.1 |
| 20260830195515 | 77 | 255 | 9.0 | 19.0 | 0.00 | 0.16 | 0.11 | 72 | 1014.2 |
| 20260830195003 | 78 | 237 | 8.0 | 21.0 | 0.00 | 0.16 | 0.11 | 71 | 1014.4 |
| 20260830194536 | 78 | 275 | 6.0 | 21.0 | 0.00 | 0.16 | 0.11 | 69 | 1014.5 |
| 20260830194016 | 79 | 266 | 6.0 | 21.0 | 0.00 | 0.16 | 0.11 | 68 | 1014.6 |
| 20260830193506 | 79 | 238 | 7.0 | 24.0 | 0.00 | 0.16 | 0.11 | 68 | 1014.5 |
| 20260830193024 | 80 | 178 | 13.0 | 24.0 | 0.00 | 0.16 | 0.11 | 67 | 1014.6 |
| 20260830192515 | 80 | 268 | 9.0 | 23.0 | 0.00 | 0.16 | 0.11 | 66 | 1014.6 |
| 20260830192005 | 81 | 262 | 12.0 | 23.0 | 0.00 | 0.16 | 0.11 | 65 | 1014.5 |
| 20260830191526 | 81 | 267 | 8.0 | 19.0 | 0.00 | 0.16 | 0.11 | 64 | 1014.6 |
| 20260830191018 | 81 | 171 | 7.0 | 20.0 | 0.00 | 0.16 | 0.11 | 64 | 1014.5 |
| 20260830190511 | 81 | 219 | 9.0 | 24.0 | 0.00 | 0.16 | 0.11 | 63 | 1014.5 |
| 20260830190031 | 82 | 304 | 13.0 | 24.0 | 0.00 | 0.16 | 0.11 | 61 | 1014.5 |
| 20260830185517 | 83 | 205 | 6.0 | 25.0 | 0.00 | 0.16 | 0.11 | 60 | 1014.4 |
| 20260830185010 | 83 | 186 | 9.0 | 25.0 | 0.00 | 0.16 | 0.11 | 59 | 1014.4 |
| 20260830184527 | 83 | 147 | 9.0 | 22.0 | 0.00 | 0.16 | 0.11 | 59 | 1014.4 |
| 20260830184025 | 82 | 247 | 10.0 | 22.0 | 0.00 | 0.16 | 0.11 | 60 | 1014.4 |
| 20260830183521 | 82 | 241 | 14.0 | 28.0 | 0.00 | 0.16 | 0.11 | 59 | 1014.2 |
| 20260830183027 | 82 | 193 | 9.0 | 28.0 | 0.00 | 0.16 | 0.11 | 59 | 1014.0 |
| 20260830182516 | 82 | 201 | 14.0 | 22.0 | 0.00 | 0.16 | 0.11 | 58 | 1013.9 |
| 20260830182010 | 83 | 242 | 11.0 | 22.0 | 0.00 | 0.16 | 0.11 | 58 | 1013.8 |
| 20260830181539 | 84 | 246 | 7.0 | 29.0 | 0.00 | 0.16 | 0.11 | 56 | 1013.7 |
| 20260830181015 | 85 | 279 | 11.0 | 29.0 | 0.00 | 0.16 | 0.11 | 55 | 1013.7 |
| 20260830180510 | 84 | 196 | 7.0 | 22.0 | 0.00 | 0.16 | 0.11 | 55 | 1013.6 |
| 20260830180005 | 85 | 185 | 11.0 | 22.0 | 0.00 | 0.16 | 0.11 | 54 | 1013.4 |
| 20260830175504 | 85 | 202 | 10.0 | 17.0 | 0.00 | 0.16 | 0.11 | 53 | 1013.3 |
| 20260830175010 | 85 | 179 | 8.0 | 18.0 | 0.00 | 0.16 | 0.11 | 53 | 1013.2 |
| 20260830174507 | 86 | 233 | 7.0 | 19.0 | 0.00 | 0.16 | 0.11 | 53 | 1013.2 |
| 20260830174005 | 85 | 259 | 6.0 | 24.0 | 0.00 | 0.16 | 0.11 | 54 | 1013.3 |
| 20260830173509 | 85 | 207 | 14.0 | 25.0 | 0.00 | 0.16 | 0.11 | 53 | 1013.3 |
| 20260830173007 | 86 | 188 | 8.0 | 16.0 | 0.00 | 0.16 | 0.11 | 54 | 1013.3 |
| 20260830172508 | 86 | 309 | 6.0 | 18.0 | 0.00 | 0.16 | 0.11 | 55 | 1013.2 |
| 20260830172018 | 86 | 238 | 8.0 | 18.0 | 0.00 | 0.16 | 0.11 | 54 | 1013.3 |
| 20260830171506 | 87 | 153 | 6.0 | 12.0 | 0.00 | 0.16 | 0.11 | 54 | 1013.3 |
| 20260830171006 | 87 | 316 | 7.0 | 16.0 | 0.00 | 0.16 | 0.11 | 53 | 1013.4 |
| 20260830170505 | 86 | 327 | 8.0 | 16.0 | 0.00 | 0.16 | 0.11 | 54 | 1013.2 |
| 20260830170012 | 86 | 139 | 6.0 | 21.0 | 0.00 | 0.16 | 0.11 | 54 | 1013.2 |
| 20260830165510 | 86 | 216 | 8.0 | 21.0 | 0.00 | 0.16 | 0.11 | 54 | 1013.2 |
| 20260830165002 | 86 | 183 | 7.0 | 17.0 | 0.00 | 0.16 | 0.11 | 55 | 1013.4 |
| 20260830164510 | 86 | 188 | 7.0 | 17.0 | 0.00 | 0.16 | 0.11 | 56 | 1013.4 |
| 20260830164010 | 85 | 219 | 5.0 | 17.0 | 0.00 | 0.16 | 0.11 | 57 | 1013.4 |
| 20260830163502 | 85 | 159 | 7.0 | 17.0 | 0.00 | 0.16 | 0.11 | 57 | 1013.5 |
| 20260830163013 | 85 | 157 | 3.0 | 12.0 | 0.00 | 0.16 | 0.11 | 57 | 1013.5 |
| 20260830162514 | 85 | 195 | 3.0 | 12.0 | 0.00 | 0.16 | 0.11 | 57 | 1013.6 |
| 20260830162002 | 85 | 194 | 4.0 | 14.0 | 0.00 | 0.16 | 0.11 | 57 | 1013.5 |
| 20260830161527 | 84 | 266 | 6.0 | 15.0 | 0.00 | 0.16 | 0.11 | 58 | 1013.5 |
| 20260830161012 | 84 | 121 | 4.0 | 15.0 | 0.00 | 0.16 | 0.11 | 58 | 1013.5 |
| 20260830160502 | 84 | 180 | 6.0 | 15.0 | 0.00 | 0.16 | 0.11 | 58 | 1013.5 |
| 20260830160013 | 84 | 189 | 4.0 | 12.0 | 0.00 | 0.16 | 0.11 | 60 | 1013.5 |
| 20260830155517 | 83 | 295 | 5.0 | 14.0 | 0.00 | 0.16 | 0.11 | 61 | 1013.5 |
| 20260830155003 | 83 | 238 | 3.0 | 14.0 | 0.00 | 0.16 | 0.11 | 61 | 1013.6 |
| 20260830154533 | 83 | 266 | 5.0 | 12.0 | 0.00 | 0.16 | 0.11 | 60 | 1013.7 |
| 20260830154012 | 83 | 257 | 2.0 | 14.0 | 0.00 | 0.16 | 0.11 | 63 | 1013.8 |
| 20260830153502 | 82 | 218 | 3.0 | 14.0 | 0.00 | 0.16 | 0.11 | 64 | 1013.8 |
| 20260830153018 | 81 | 186 | 4.0 | 13.0 | 0.00 | 0.16 | 0.11 | 64 | 1013.8 |
| 20260830152513 | 81 | 219 | 5.0 | 10.0 | 0.00 | 0.16 | 0.11 | 65 | 1013.8 |
| 20260830152005 | 81 | 246 | 3.0 | 10.0 | 0.00 | 0.16 | 0.11 | 66 | 1013.8 |
| 20260830151520 | 80 | 292 | 4.0 | 10.0 | 0.00 | 0.16 | 0.11 | 67 | 1013.9 |
| 20260830151014 | 80 | 248 | 5.0 | 10.0 | 0.00 | 0.16 | 0.11 | 67 | 1013.9 |
| 20260830150506 | 79 | 221 | 3.0 | 8.0 | 0.00 | 0.16 | 0.11 | 68 | 1013.8 |
| 20260830150018 | 79 | 176 | 3.0 | 8.0 | 0.00 | 0.16 | 0.11 | 68 | 1013.8 |
| 20260830145516 | 79 | 237 | 3.0 | 8.0 | 0.00 | 0.16 | 0.11 | 69 | 1013.9 |
| 20260830145015 | 79 | 222 | 2.0 | 8.0 | 0.00 | 0.16 | 0.11 | 70 | 1013.8 |
| 20260830144525 | 78 | 222 | 1.0 | 7.0 | 0.00 | 0.16 | 0.11 | 72 | 1013.8 |
| 20260830144018 | 77 | 194 | 3.0 | 8.0 | 0.00 | 0.16 | 0.11 | 72 | 1013.9 |
| 20260830143504 | 77 | 153 | 2.0 | 12.0 | 0.00 | 0.16 | 0.11 | 73 | 1013.8 |
| 20260830143026 | 77 | 200 | 1.0 | 12.0 | 0.00 | 0.16 | 0.11 | 74 | 1013.8 |
| 20260830142504 | 76 | 223 | 2.0 | 10.0 | 0.00 | 0.16 | 0.11 | 75 | 1013.8 |
| 20260830142006 | 76 | 193 | 2.0 | 5.0 | 0.00 | 0.16 | 0.11 | 75 | 1013.9 |
| 20260830141523 | 76 | 227 | 2.0 | 6.0 | 0.00 | 0.16 | 0.11 | 76 | 1014.0 |
| 20260830141006 | 75 | 161 | 1.0 | 8.0 | 0.00 | 0.16 | 0.11 | 77 | 1013.9 |
| 20260830140505 | 74 | 267 | 1.0 | 8.0 | 0.00 | 0.16 | 0.11 | 79 | 1013.9 |
| 20260830140028 | 74 | 103 | 2.0 | 8.0 | 0.00 | 0.16 | 0.11 | 79 | 1013.9 |
| 20260830135503 | 73 | 147 | 2.0 | 8.0 | 0.00 | 0.16 | 0.11 | 80 | 1013.9 |
| 20260830135008 | 73 | 196 | 2.0 | 7.0 | 0.00 | 0.16 | 0.11 | 81 | 1013.9 |
| 20260830134539 | 73 | 135 | 1.0 | 6.0 | 0.00 | 0.16 | 0.11 | 82 | 1013.9 |
| 20260830134003 | 72 | 170 | 3.0 | 8.0 | 0.00 | 0.16 | 0.11 | 84 | 1014.0 |
| 20260830133506 | 71 | 155 | 3.0 | 8.0 | 0.00 | 0.16 | 0.11 | 84 | 1013.9 |
| 20260830133036 | 71 | 172 | 3.0 | 5.0 | 0.00 | 0.16 | 0.11 | 85 | 1013.9 |
| 20260830132504 | 70 | 223 | 1.0 | 8.0 | 0.00 | 0.16 | 0.11 | 86 | 1014.0 |
| 20260830132013 | 70 | 194 | 3.0 | 8.0 | 0.00 | 0.16 | 0.11 | 87 | 1014.1 |
| 20260830131528 | 70 | 184 | 2.0 | 7.0 | 0.00 | 0.16 | 0.11 | 87 | 1014.2 |
| 20260830131006 | 70 | 185 | 1.0 | 8.0 | 0.00 | 0.16 | 0.11 | 87 | 1014.1 |
| 20260830130510 | 69 | 199 | 3.0 | 8.0 | 0.00 | 0.16 | 0.11 | 88 | 1014.2 |
| 20260830130031 | 69 | 217 | 3.0 | 7.0 | 0.00 | 0.16 | 0.11 | 88 | 1014.2 |
| 20260830125505 | 69 | 236 | 1.0 | 6.0 | 0.00 | 0.16 | 0.11 | 89 | 1014.3 |
| 20260830125010 | 68 | 236 | 0.0 | 6.0 | 0.00 | 0.16 | 0.11 | 90 | 1014.3 |
| 20260830124532 | 68 | 221 | 2.0 | 5.0 | 0.00 | 0.16 | 0.11 | 90 | 1014.3 |
| 20260830124010 | 68 | 180 | 1.0 | 5.0 | 0.00 | 0.16 | 0.11 | 90 | 1014.4 |
| 20260830123510 | 68 | 225 | 1.0 | 5.0 | 0.00 | 0.16 | 0.11 | 90 | 1014.5 |
| 20260830123034 | 68 | 128 | 1.0 | 4.0 | 0.01 | 0.16 | 0.11 | 90 | 1014.4 |
| 20260830122506 | 68 | 250 | 2.0 | 4.0 | 0.02 | 0.16 | 0.11 | 90 | 1014.5 |
| 20260830122015 | 68 | 212 | 1.0 | 4.0 | 0.02 | 0.16 | 0.11 | 90 | 1014.4 |
| 20260830121531 | 68 | 165 | 0.0 | 3.0 | 0.02 | 0.16 | 0.11 | 90 | 1014.5 |
| 20260830121007 | 68 | 183 | 1.0 | 4.0 | 0.02 | 0.16 | 0.11 | 89 | 1014.5 |
| 20260830120512 | 68 | 234 | 1.0 | 4.0 | 0.02 | 0.16 | 0.11 | 89 | 1014.5 |
| 20260830120030 | 68 | 199 | 0.0 | 5.0 | 0.02 | 0.16 | 0.11 | 89 | 1014.5 |
| 20260830115509 | 68 | 184 | 2.0 | 5.0 | 0.02 | 0.16 | 0.11 | 89 | 1014.4 |
| 20260830115017 | 68 | 244 | 1.0 | 4.0 | 0.02 | 0.16 | 0.11 | 88 | 1014.3 |
| 20260830114542 | 68 | 217 | 2.0 | 6.0 | 0.02 | 0.16 | 0.11 | 88 | 1014.3 |
| 20260830114009 | 68 | 227 | 1.0 | 6.0 | 0.02 | 0.16 | 0.11 | 88 | 1014.2 |
| 20260830113512 | 68 | 234 | 2.0 | 6.0 | 0.02 | 0.16 | 0.11 | 87 | 1014.2 |
| 20260830113011 | 68 | 187 | 1.0 | 5.0 | 0.02 | 0.15 | 0.10 | 87 | 1014.1 |
| 20260830112510 | 68 | 203 | 2.0 | 5.0 | 0.01 | 0.14 | 0.09 | 87 | 1014.2 |
| 20260830112016 | 68 | 246 | 1.0 | 4.0 | 0.02 | 0.14 | 0.09 | 86 | 1014.0 |
| 20260830111514 | 68 | 215 | 1.0 | 4.0 | 0.02 | 0.14 | 0.09 | 86 | 1013.9 |
| 20260830111012 | 68 | 241 | 2.0 | 7.0 | 0.02 | 0.14 | 0.09 | 86 | 1014.1 |
| 20260830110516 | 68 | 224 | 2.0 | 7.0 | 0.04 | 0.14 | 0.09 | 86 | 1013.9 |
| 20260830110017 | 68 | 283 | 0.0 | 5.0 | 0.04 | 0.14 | 0.09 | 86 | 1013.8 |
| 20260830105511 | 68 | 124 | 1.0 | 7.0 | 0.04 | 0.14 | 0.09 | 86 | 1013.6 |
| 20260830105015 | 68 | 167 | 2.0 | 7.0 | 0.04 | 0.14 | 0.09 | 86 | 1013.8 |
| 20260830104514 | 68 | 220 | 1.0 | 8.0 | 0.04 | 0.14 | 0.09 | 86 | 1013.8 |
| 20260830104011 | 68 | 169 | 2.0 | 8.0 | 0.04 | 0.14 | 0.09 | 86 | 1013.8 |
| 20260830103515 | 69 | 202 | 2.0 | 6.0 | 0.04 | 0.14 | 0.09 | 85 | 1013.7 |
| 20260830103017 | 69 | 191 | 2.0 | 7.0 | 0.03 | 0.13 | 0.08 | 84 | 1013.6 |
| 20260830102514 | 69 | 214 | 2.0 | 8.0 | 0.03 | 0.13 | 0.08 | 83 | 1013.8 |
| 20260830102018 | 70 | 205 | 2.0 | 8.0 | 0.02 | 0.12 | 0.07 | 82 | 1013.9 |